Time;durP1;ratioP1;P1;durP2;ratioP2;P2;SDS_P1;SDS_P2;PMS_P1;PMS_P2;Temp;Humidity;BMP_temperature;BMP_pressure;BME280_temperature;BME280_humidity;BME280_pressure;Samples;Min_cycle;Max_cycle;Signal;HPM_P1;HPM_P2
2022/11/03 00:00:05;;;;;;;4.60;1.73;;;16.10;99.90;;;;;;7355081;79;26413;-48
2022/11/03 00:10:08;;;;;;;6.27;1.90;;;16.00;99.90;;;;;;7353515;79;26378;-48
2022/11/03 00:20:11;;;;;;;4.23;2.03;;;16.00;99.90;;;;;;7353420;79;26492;-49
2022/11/03 00:30:14;;;;;;;6.83;2.00;;;15.90;99.90;;;;;;7364271;79;26317;-49
2022/11/03 00:40:16;;;;;;;6.53;2.00;;;15.90;99.90;;;;;;7356999;79;26301;-49
2022/11/03 00:50:19;;;;;;;3.10;1.70;;;16.00;99.90;;;;;;7352722;79;26301;-48
2022/11/03 01:00:21;;;;;;;7.50;2.10;;;16.00;99.90;;;;;;7363532;79;26365;-49
2022/11/03 01:10:24;;;;;;;6.53;2.03;;;16.00;99.90;;;;;;7355193;79;26391;-49
2022/11/03 01:20:26;;;;;;;3.57;1.43;;;16.00;99.90;;;;;;7352393;79;26906;-49
2022/11/03 01:30:29;;;;;;;6.90;1.80;;;15.90;99.90;;;;;;7355447;79;26294;-49
2022/11/03 01:40:32;;;;;;;5.00;1.80;;;15.90;99.90;;;;;;7353647;79;26841;-49
2022/11/03 01:50:35;;;;;;;5.70;1.90;;;15.80;99.90;;;;;;7353577;79;26313;-48
2022/11/03 02:00:38;;;;;;;5.50;1.87;;;15.90;99.90;;;;;;7355213;79;26363;-48
2022/11/03 02:10:41;;;;;;;4.40;1.47;;;15.80;99.90;;;;;;7367772;79;26337;-48
2022/11/03 02:20:46;;;;;;;3.27;1.50;;;15.80;99.90;;;;;;7351400;79;26322;-48
2022/11/03 02:31:03;;;;;;;3.47;1.50;;;15.80;99.90;;;;;;7361050;79;26390;-50
2022/11/03 02:41:08;;;;;;;4.33;2.00;;;15.80;99.90;;;;;;7354657;79;26834;-48
2022/11/03 02:51:11;;;;;;;5.67;1.83;;;15.80;99.90;;;;;;7350353;79;26399;-49
2022/11/03 03:01:25;;;;;;;4.40;1.53;;;15.80;99.90;;;;;;7357011;79;26817;-48
2022/11/03 03:11:36;;;;;;;5.33;1.60;;;15.70;99.90;;;;;;7351139;79;26336;-48
2022/11/03 03:21:42;;;;;;;4.13;1.77;;;15.70;99.90;;;;;;7341210;79;26407;-49
2022/11/03 03:31:47;;;;;;;6.27;1.77;;;15.70;99.90;;;;;;7353489;79;26302;-49
2022/11/03 03:41:52;;;;;;;3.47;1.60;;;15.70;99.90;;;;;;7356076;79;26315;-49
2022/11/03 03:51:54;;;;;;;3.53;1.43;;;15.70;99.90;;;;;;7357069;78;26392;-47
2022/11/03 04:01:58;;;;;;;4.90;1.80;;;15.60;99.90;;;;;;7356127;79;27378;-47
2022/11/03 04:22:21;;;;;;;7.80;1.87;;;15.60;99.90;;;;;;7354669;79;26356;-47
2022/11/03 04:32:23;;;;;;;3.53;1.50;;;15.60;99.90;;;;;;7354935;79;26414;-48
2022/11/03 04:42:26;;;;;;;6.97;2.20;;;15.50;99.90;;;;;;7354248;79;26305;-48
2022/11/03 04:52:30;;;;;;;3.67;1.77;;;15.50;99.90;;;;;;7356201;79;26359;-49
2022/11/03 05:02:32;;;;;;;3.17;1.50;;;15.50;99.90;;;;;;7356980;79;26310;-49
2022/11/03 05:12:35;;;;;;;7.30;1.67;;;15.50;99.90;;;;;;7355984;79;26780;-48
2022/11/03 05:22:38;;;;;;;3.60;1.57;;;15.40;99.90;;;;;;7347594;79;26393;-48
2022/11/03 05:32:41;;;;;;;3.50;1.60;;;15.40;99.90;;;;;;7355390;79;26305;-47
2022/11/03 05:42:46;;;;;;;4.73;2.13;;;15.40;99.90;;;;;;7354964;79;27298;-49
2022/11/03 05:52:51;;;;;;;8.30;2.43;;;15.40;99.90;;;;;;7351689;79;26364;-48
2022/11/03 06:02:54;;;;;;;5.97;1.97;;;15.30;99.90;;;;;;7353450;79;26332;-50
2022/11/03 06:13:17;;;;;;;4.87;1.77;;;15.30;99.90;;;;;;7352137;79;26775;-48
2022/11/03 06:23:21;;;;;;;2.47;1.43;;;15.30;99.90;;;;;;7351498;79;26314;-48
2022/11/03 06:33:29;;;;;;;6.67;1.63;;;15.30;99.90;;;;;;7353292;79;26340;-50
2022/11/03 06:43:42;;;;;;;4.10;1.97;;;15.30;99.90;;;;;;7353513;79;26308;-48
2022/11/03 06:53:44;;;;;;;5.40;2.00;;;15.30;99.90;;;;;;7358624;79;27327;-49
2022/11/03 07:03:49;;;;;;;8.97;2.87;;;15.30;99.90;;;;;;7365602;79;26305;-50
2022/11/03 07:13:59;;;;;;;4.67;2.30;;;15.20;99.90;;;;;;7360316;79;26420;-49
2022/11/03 07:24:05;;;;;;;9.07;2.30;;;15.20;99.90;;;;;;7355554;79;27346;-48
2022/11/03 07:34:11;;;;;;;8.23;3.43;;;15.20;99.90;;;;;;7352079;79;26379;-49
2022/11/03 07:44:21;;;;;;;8.67;2.60;;;15.20;99.90;;;;;;7353875;79;26392;-48
2022/11/03 07:54:26;;;;;;;7.00;2.77;;;15.10;99.90;;;;;;7362284;79;27166;-47
2022/11/03 08:04:34;;;;;;;5.23;2.63;;;15.10;99.90;;;;;;7351923;79;26336;-48
2022/11/03 08:14:37;;;;;;;8.37;2.90;;;15.20;99.90;;;;;;7339797;79;26368;-49
2022/11/03 08:24:39;;;;;;;5.53;2.57;;;15.30;99.90;;;;;;7347612;79;26384;-48
2022/11/03 08:34:42;;;;;;;8.27;2.90;;;15.30;99.90;;;;;;7349450;79;27573;-49
2022/11/03 08:44:44;;;;;;;6.70;2.93;;;15.50;99.90;;;;;;7343145;79;26344;-48
2022/11/03 08:54:47;;;;;;;7.87;2.90;;;15.50;99.90;;;;;;7367880;79;26457;-50
2022/11/03 09:04:49;;;;;;;6.40;2.53;;;15.70;99.90;;;;;;7348637;79;26606;-48
2022/11/03 09:14:52;;;;;;;9.73;3.10;;;15.90;99.90;;;;;;7344879;79;26396;-49
2022/11/03 09:24:54;;;;;;;7.37;2.80;;;15.80;99.90;;;;;;7345746;79;26432;-48
2022/11/03 09:34:57;;;;;;;7.13;3.00;;;15.90;99.90;;;;;;7346083;79;27609;-48
2022/11/03 09:45:00;;;;;;;5.23;2.07;;;15.90;99.90;;;;;;7348329;79;26446;-48
2022/11/03 09:55:03;;;;;;;7.33;3.17;;;16.00;99.90;;;;;;7362542;79;26407;-51
2022/11/03 10:05:06;;;;;;;7.53;3.30;;;16.00;99.90;;;;;;7364188;79;27214;-49
2022/11/03 10:15:17;;;;;;;7.07;4.07;;;15.90;99.90;;;;;;7354221;79;26321;-48
2022/11/03 10:25:31;;;;;;;10.17;4.10;;;15.70;99.90;;;;;;7353882;79;26340;-48
2022/11/03 10:35:35;;;;;;;7.40;2.73;;;15.70;99.90;;;;;;7349549;79;26318;-48
2022/11/03 10:45:37;;;;;;;7.10;3.43;;;15.80;99.90;;;;;;7351277;79;26289;-48
2022/11/03 10:55:41;;;;;;;9.20;3.30;;;15.70;99.90;;;;;;7368237;79;26352;-48
2022/11/03 11:05:47;;;;;;;8.97;3.57;;;15.70;99.90;;;;;;7355732;79;26380;-49
2022/11/03 11:15:55;;;;;;;9.67;2.90;;;15.70;99.90;;;;;;7354503;79;26403;-49
2022/11/03 11:26:13;;;;;;;7.87;2.73;;;15.80;99.90;;;;;;7353891;79;26399;-48
2022/11/03 11:36:24;;;;;;;6.07;2.87;;;15.80;99.90;;;;;;7351280;79;26810;-49
2022/11/03 11:46:39;;;;;;;6.77;2.80;;;15.80;99.90;;;;;;7351943;79;26394;-48
2022/11/03 11:56:47;;;;;;;7.40;2.63;;;15.80;99.90;;;;;;7343978;79;26301;-48
2022/11/03 12:06:49;;;;;;;6.60;2.60;;;15.80;99.90;;;;;;7352419;79;26396;-48
2022/11/03 12:16:52;;;;;;;7.93;2.67;;;15.80;99.90;;;;;;7362953;79;26407;-49
2022/11/03 12:26:55;;;;;;;8.40;3.07;;;15.80;99.90;;;;;;7351870;79;26339;-49
2022/11/03 12:36:58;;;;;;;4.03;2.40;;;15.80;99.90;;;;;;7351219;79;26320;-48
2022/11/03 12:47:01;;;;;;;8.33;2.83;;;15.80;99.90;;;;;;7362945;79;26332;-50
2022/11/03 12:57:03;;;;;;;7.40;2.60;;;15.80;99.90;;;;;;7375652;79;26301;-49
2022/11/03 13:07:06;;;;;;;8.57;3.30;;;15.80;99.90;;;;;;7356508;79;26328;-49
2022/11/03 13:17:08;;;;;;;10.70;3.37;;;15.70;99.90;;;;;;7355600;79;26332;-49
2022/11/03 13:27:11;;;;;;;12.40;4.33;;;15.60;99.90;;;;;;7354595;79;26357;-48
2022/11/03 13:37:13;;;;;;;9.77;3.90;;;15.50;99.90;;;;;;7354858;79;26301;-48
2022/11/03 13:47:16;;;;;;;8.43;3.37;;;15.50;99.90;;;;;;7359653;79;26378;-47
2022/11/03 13:57:19;;;;;;;8.20;3.20;;;15.50;99.90;;;;;;7352549;79;26830;-47
2022/11/03 14:07:21;;;;;;;10.73;4.43;;;15.40;99.90;;;;;;7352212;79;26293;-48
2022/11/03 14:17:24;;;;;;;12.93;4.77;;;15.30;99.90;;;;;;7362509;79;26291;-47
2022/11/03 14:27:26;;;;;;;8.67;4.10;;;15.50;99.90;;;;;;7355700;79;26846;-49
2022/11/03 14:37:29;;;;;;;7.50;3.17;;;15.50;99.90;;;;;;7356130;79;26325;-48
2022/11/03 14:47:31;;;;;;;8.27;3.23;;;15.40;99.90;;;;;;7365906;78;26371;-48
2022/11/03 14:57:34;;;;;;;6.87;3.43;;;15.50;99.90;;;;;;7359282;79;27141;-48
2022/11/03 15:07:36;;;;;;;5.93;2.80;;;15.50;99.90;;;;;;7352211;79;26300;-48
2022/11/03 15:17:39;;;;;;;6.43;2.60;;;15.50;99.90;;;;;;7352118;79;26352;-50
2022/11/03 15:27:41;;;;;;;4.83;2.67;;;15.50;99.90;;;;;;7350744;79;26898;-48
2022/11/03 15:37:44;;;;;;;5.40;2.60;;;15.40;99.90;;;;;;7364604;79;26381;-48
2022/11/03 15:47:47;;;;;;;6.33;2.53;;;15.40;99.90;;;;;;7349000;79;26415;-52
2022/11/03 15:57:52;;;;;;;6.87;2.67;;;15.40;99.90;;;;;;7347826;79;26457;-49
2022/11/03 16:07:54;;;;;;;4.07;2.40;;;15.40;99.90;;;;;;7345694;79;26380;-46
2022/11/03 16:18:01;;;;;;;8.67;3.10;;;15.40;99.90;;;;;;7347898;79;27016;-49
2022/11/03 16:28:01;;;;;;;7.63;3.00;;;15.40;99.90;;;;;;7351073;79;26361;-46
2022/11/03 16:38:04;;;;;;;6.53;3.13;;;15.40;99.90;;;;;;7350857;79;26447;-49
2022/11/03 16:48:07;;;;;;;9.80;3.50;;;15.40;99.90;;;;;;7355300;79;26423;-48
2022/11/03 16:58:09;;;;;;;6.30;3.37;;;15.40;99.90;;;;;;7349249;79;26996;-48
2022/11/03 17:08:12;;;;;;;7.03;3.53;;;15.30;99.90;;;;;;7349952;79;26353;-48
2022/11/03 17:18:14;;;;;;;7.27;3.60;;;15.40;99.90;;;;;;7348049;79;26430;-49
2022/11/03 17:28:17;;;;;;;7.60;3.00;;;15.30;99.90;;;;;;7356713;79;26357;-48
2022/11/03 17:38:20;;;;;;;9.00;4.30;;;15.30;99.90;;;;;;7355537;79;26441;-50
2022/11/03 17:48:23;;;;;;;8.77;3.60;;;15.30;99.90;;;;;;7354426;79;26317;-49
2022/11/03 17:58:28;;;;;;;8.93;3.73;;;15.40;99.90;;;;;;7352447;79;26310;-49
2022/11/03 18:08:31;;;;;;;9.57;4.17;;;15.30;99.90;;;;;;7351276;79;26310;-48
2022/11/03 18:18:36;;;;;;;4.73;2.70;;;15.30;99.90;;;;;;7353202;79;26306;-49
2022/11/03 18:28:38;;;;;;;3.77;2.60;;;15.30;99.90;;;;;;7357371;79;26368;-49
2022/11/03 18:38:42;;;;;;;5.07;2.83;;;15.30;99.90;;;;;;7357063;79;26767;-46
2022/11/03 18:48:45;;;;;;;9.97;3.40;;;15.30;99.90;;;;;;7350000;79;26290;-49
2022/11/03 18:58:50;;;;;;;6.90;3.00;;;15.30;99.90;;;;;;7365055;79;26338;-47
2022/11/03 19:08:56;;;;;;;5.67;2.80;;;15.20;99.90;;;;;;7358797;79;26395;-50
2022/11/03 19:18:59;;;;;;;7.20;3.23;;;15.20;99.90;;;;;;7351531;79;26415;-50
2022/11/03 19:29:04;;;;;;;4.57;2.73;;;15.20;99.90;;;;;;7348413;79;26372;-49
2022/11/03 19:39:11;;;;;;;4.97;2.40;;;15.20;99.90;;;;;;7349991;79;26340;-49
2022/11/03 19:49:14;;;;;;;6.83;3.03;;;15.20;99.90;;;;;;7333810;79;26321;-50
2022/11/03 19:59:17;;;;;;;4.27;2.60;;;15.10;99.90;;;;;;7350645;79;27378;-48
2022/11/03 20:09:21;;;;;;;5.40;2.20;;;15.10;99.90;;;;;;7349598;79;26782;-48
2022/11/03 20:19:24;;;;;;;3.53;2.00;;;15.10;99.90;;;;;;7359203;79;26457;-50
2022/11/03 20:29:26;;;;;;;5.57;2.10;;;15.10;99.90;;;;;;7349055;79;26433;-49
2022/11/03 20:39:29;;;;;;;5.73;3.20;;;15.20;99.90;;;;;;7347356;79;26375;-49
2022/11/03 20:49:31;;;;;;;5.53;2.70;;;15.10;99.90;;;;;;7347468;79;26869;-49
2022/11/03 20:59:34;;;;;;;5.60;2.43;;;15.10;99.90;;;;;;7352660;79;26653;-50
2022/11/03 21:09:37;;;;;;;4.33;2.07;;;15.10;99.90;;;;;;7347073;79;26854;-50
2022/11/03 21:19:58;;;;;;;5.27;2.50;;;15.10;99.90;;;;;;7345497;79;26442;-50
2022/11/03 21:30:00;;;;;;;2.20;1.90;;;15.10;99.90;;;;;;7339903;79;26376;-51
2022/11/03 21:40:03;;;;;;;5.27;2.03;;;15.10;99.90;;;;;;7347580;79;26779;-47
2022/11/03 21:50:06;;;;;;;4.10;1.73;;;15.20;99.90;;;;;;7346212;79;26443;-46
2022/11/03 22:00:09;;;;;;;2.27;1.60;;;15.20;99.90;;;;;;7351023;79;26329;-49
2022/11/03 22:10:12;;;;;;;3.73;1.97;;;15.20;99.90;;;;;;7355866;79;26305;-48
2022/11/03 22:51:16;;;;;;;4.33;2.50;;;15.20;99.90;;;;;;7340571;79;26775;-49
2022/11/03 23:01:21;;;;;;;3.00;1.80;;;15.20;99.90;;;;;;7486473;76;27419;-53
2022/11/03 23:11:29;;;;;;;2.87;1.60;;;15.20;99.90;;;;;;7721844;76;26396;-55
2022/11/03 23:21:33;;;;;;;2.93;1.60;;;15.20;99.90;;;;;;7715574;75;26326;-56
2022/11/03 23:31:36;;;;;;;2.63;1.37;;;15.20;99.90;;;;;;7740864;75;26757;-54
2022/11/03 23:41:39;;;;;;;2.17;1.50;;;15.20;99.90;;;;;;7740995;75;26723;-55
2022/11/03 23:51:41;;;;;;;3.03;1.60;;;15.20;99.90;;;;;;7745802;77;26327;-57
